createdAt,value
2023-09-19T00:02:09.491Z,56.59
2023-09-19T00:04:40.759Z,56.70
2023-09-19T00:07:08.013Z,56.70
2023-09-19T00:09:38.337Z,56.63
2023-09-19T00:12:10.374Z,56.62
2023-09-19T00:14:37.782Z,56.51
2023-09-19T00:17:07.031Z,56.54
2023-09-19T00:19:38.849Z,56.58
2023-09-19T00:22:05.968Z,56.54
2023-09-19T00:24:33.376Z,56.64
2023-09-19T00:27:00.675Z,56.51
2023-09-19T00:29:32.871Z,56.57
2023-09-19T00:32:00.389Z,56.56
2023-09-19T00:34:28.380Z,56.53
2023-09-19T00:36:55.462Z,56.54
2023-09-19T00:39:22.976Z,56.57
2023-09-19T00:41:50.189Z,56.54
2023-09-19T00:44:18.740Z,56.52
2023-09-19T00:46:48.266Z,56.49
2023-09-19T00:49:17.241Z,56.55
2023-09-19T00:51:48.168Z,56.57
2023-09-19T00:54:19.285Z,56.55
2023-09-19T00:56:46.987Z,56.65
2023-09-19T00:59:14.747Z,56.55
2023-09-19T01:01:42.108Z,56.54
2023-09-19T01:04:10.045Z,56.54
2023-09-19T01:06:37.841Z,56.65
2023-09-19T01:09:06.018Z,56.57
2023-09-19T01:11:44.924Z,56.64
2023-09-19T01:14:29.133Z,56.59
2023-09-19T01:17:26.697Z,56.89
2023-09-19T01:20:12.272Z,56.63
2023-09-19T01:22:48.777Z,56.58
2023-09-19T01:25:25.238Z,56.71
2023-09-19T01:27:52.352Z,56.60
2023-09-19T01:30:23.475Z,56.63
2023-09-19T01:32:53.536Z,56.65
2023-09-19T01:35:21.081Z,56.72
2023-09-19T01:37:48.197Z,56.65
2023-09-19T01:40:18.343Z,56.61
2023-09-19T01:42:46.106Z,56.68
2023-09-19T01:45:14.778Z,56.75
2023-09-19T01:47:51.120Z,56.74
2023-09-19T01:50:41.979Z,56.65
2023-09-19T01:53:16.820Z,56.57
2023-09-19T01:55:48.101Z,56.78
2023-09-19T01:58:19.127Z,56.71
2023-09-19T02:00:47.460Z,56.81
2023-09-19T02:03:15.123Z,56.97
2023-09-19T02:05:42.815Z,56.65
2023-09-19T02:08:09.851Z,56.74
2023-09-19T02:10:37.255Z,56.80
2023-09-19T02:13:05.435Z,56.75
2023-09-19T02:15:35.549Z,56.79
2023-09-19T02:18:03.797Z,56.81
2023-09-19T02:20:31.526Z,56.92
2023-09-19T02:22:58.652Z,56.84
2023-09-19T02:25:28.035Z,56.96
2023-09-19T02:27:57.333Z,56.94
2023-09-19T02:30:26.910Z,56.95
2023-09-19T02:32:54.058Z,56.73
2023-09-19T02:35:21.520Z,56.94
2023-09-19T02:37:49.017Z,56.94
2023-09-19T02:40:26.936Z,56.97
2023-09-19T02:42:54.918Z,56.99
2023-09-19T02:45:23.595Z,56.94
2023-09-19T02:47:50.801Z,56.97
2023-09-19T02:50:18.657Z,57.08
2023-09-19T02:52:48.279Z,56.99
2023-09-19T02:55:20.927Z,56.97
2023-09-19T02:57:49.110Z,56.95
2023-09-19T03:00:17.683Z,56.95
2023-09-19T03:02:47.458Z,57.11
2023-09-19T03:05:15.253Z,57.04
2023-09-19T03:07:44.225Z,57.07
2023-09-19T03:10:11.839Z,57.12
2023-09-19T03:12:41.210Z,57.11
2023-09-19T03:15:09.667Z,57.03
2023-09-19T03:17:37.575Z,57.13
2023-09-19T03:20:09.863Z,57.15
2023-09-19T03:22:37.114Z,57.23
2023-09-19T03:25:08.864Z,57.26
2023-09-19T03:27:36.211Z,57.20
2023-09-19T03:30:08.997Z,57.33
2023-09-19T03:32:37.056Z,57.37
2023-09-19T03:35:08.106Z,57.46
2023-09-19T03:37:35.476Z,57.37
2023-09-19T03:40:06.182Z,57.34
2023-09-19T03:42:33.662Z,57.47
2023-09-19T03:45:02.026Z,57.41
2023-09-19T03:47:29.157Z,57.49
2023-09-19T03:49:56.479Z,57.46
2023-09-19T03:52:23.540Z,57.55
2023-09-19T03:54:50.934Z,57.65
2023-09-19T03:57:21.666Z,57.63
2023-09-19T03:59:49.108Z,57.58
2023-09-19T04:02:23.721Z,57.71
2023-09-19T04:04:52.016Z,57.86
2023-09-19T04:07:20.221Z,57.74
2023-09-19T04:09:47.518Z,57.69
2023-09-19T04:12:17.991Z,57.80
2023-09-19T04:14:45.433Z,57.91
2023-09-19T04:17:12.623Z,57.92
2023-09-19T04:19:41.972Z,58.13
2023-09-19T04:22:10.238Z,58.20
2023-09-19T04:24:39.013Z,58.32
2023-09-19T04:27:06.317Z,58.22
2023-09-19T04:29:33.785Z,58.31
2023-09-19T04:32:00.889Z,58.49
2023-09-19T04:34:28.478Z,58.46
2023-09-19T04:36:57.579Z,58.72
2023-09-19T04:39:26.689Z,58.59
2023-09-19T04:41:54.056Z,58.86
2023-09-19T04:44:24.420Z,59.04
2023-09-19T04:46:52.044Z,58.66
2023-09-19T04:49:19.756Z,58.84
2023-09-19T04:51:48.130Z,58.96
2023-09-19T04:54:16.003Z,58.94
2023-09-19T04:56:43.106Z,59.01
2023-09-19T04:59:12.022Z,59.08
2023-09-19T05:01:39.359Z,59.31
2023-09-19T05:04:06.871Z,59.60
2023-09-19T05:06:37.064Z,59.95
2023-09-19T05:09:06.530Z,59.93
2023-09-19T05:11:35.090Z,60.46
2023-09-19T05:14:04.965Z,60.40
2023-09-19T05:16:35.676Z,60.07
2023-09-19T05:19:03.260Z,60.53
2023-09-19T05:21:32.079Z,60.74
2023-09-19T05:23:59.402Z,60.58
2023-09-19T05:26:26.509Z,60.67
2023-09-19T05:28:54.084Z,60.64
2023-09-19T05:31:21.714Z,60.61
2023-09-19T05:33:49.321Z,60.68
2023-09-19T05:36:17.944Z,60.83
2023-09-19T05:38:45.776Z,60.48
2023-09-19T05:41:14.919Z,60.72
2023-09-19T05:43:43.186Z,60.60
2023-09-19T05:46:10.789Z,60.69
2023-09-19T05:48:40.660Z,60.92
2023-09-19T05:51:07.940Z,60.80
2023-09-19T05:53:35.417Z,60.93
2023-09-19T05:56:02.588Z,60.85
2023-09-19T05:58:30.088Z,60.84
2023-09-19T06:00:58.544Z,61.13
2023-09-19T06:03:26.045Z,61.22
2023-09-19T06:05:54.111Z,61.34
2023-09-19T06:08:21.664Z,61.53
2023-09-19T06:10:50.101Z,61.68
2023-09-19T06:13:17.864Z,61.44
2023-09-19T06:15:45.016Z,61.52
2023-09-19T06:18:18.223Z,61.59
2023-09-19T06:20:47.247Z,61.26
2023-09-19T06:23:14.812Z,61.48
2023-09-19T06:25:42.004Z,61.44
2023-09-19T06:28:13.026Z,61.41
2023-09-19T06:30:43.734Z,61.58
2023-09-19T06:33:14.960Z,61.31
2023-09-19T06:35:45.061Z,61.46
2023-09-19T06:38:14.178Z,61.38
2023-09-19T06:40:43.650Z,61.51
2023-09-19T06:43:11.864Z,61.48
2023-09-19T06:45:39.010Z,61.50
2023-09-19T06:48:06.731Z,61.52
2023-09-19T06:50:35.428Z,61.45
2023-09-19T06:53:03.022Z,61.33
2023-09-19T06:55:32.566Z,61.34
2023-09-19T06:58:00.784Z,61.02
2023-09-19T07:00:29.428Z,61.01
2023-09-19T07:03:19.896Z,61.23
2023-09-19T07:05:48.193Z,61.47
2023-09-19T07:08:16.198Z,61.51
2023-09-19T07:10:50.055Z,61.47
2023-09-19T07:13:18.420Z,61.48
2023-09-19T07:15:49.123Z,61.22
2023-09-19T07:18:19.304Z,61.30
2023-09-19T07:20:50.606Z,61.46
2023-09-19T07:23:19.548Z,61.15
2023-09-19T07:25:47.476Z,61.37
2023-09-19T07:28:15.012Z,61.66
2023-09-19T07:30:42.639Z,61.61
2023-09-19T07:33:12.486Z,61.41
2023-09-19T07:35:43.204Z,61.44
2023-09-19T07:38:12.719Z,61.69
2023-09-19T07:40:40.721Z,61.56
2023-09-19T07:43:08.345Z,61.52
2023-09-19T07:45:37.554Z,61.88
2023-09-19T07:48:14.765Z,61.75
2023-09-19T07:50:44.593Z,61.78
2023-09-19T07:53:14.580Z,61.76
2023-09-19T07:55:42.274Z,61.98
2023-09-19T07:58:09.711Z,61.84
2023-09-19T08:00:36.835Z,61.87
2023-09-19T08:03:15.566Z,61.85
2023-09-19T08:05:45.136Z,62.07
2023-09-19T08:08:15.742Z,61.95
2023-09-19T08:10:44.664Z,61.91
2023-09-19T08:13:14.541Z,61.90
2023-09-19T08:15:47.700Z,61.99
2023-09-19T08:18:16.420Z,61.79
2023-09-19T08:20:43.745Z,62.11
2023-09-19T08:23:11.119Z,61.94
2023-09-19T08:25:39.909Z,61.63
2023-09-19T08:28:09.851Z,61.74
2023-09-19T08:30:41.548Z,61.93
2023-09-19T08:33:09.078Z,61.97
2023-09-19T08:35:37.036Z,61.96
2023-09-19T08:38:05.458Z,62.17
2023-09-19T08:40:34.740Z,61.95
2023-09-19T08:43:02.351Z,61.95
2023-09-19T08:45:29.638Z,62.14
2023-09-19T08:47:57.207Z,62.15
2023-09-19T08:50:27.355Z,61.92
2023-09-19T08:52:56.295Z,62.04
2023-09-19T08:55:28.292Z,62.20
2023-09-19T08:58:04.399Z,62.05
2023-09-19T09:00:32.256Z,62.33
2023-09-19T09:03:02.336Z,62.29
2023-09-19T09:05:29.889Z,62.36
2023-09-19T09:07:57.741Z,62.35
2023-09-19T09:10:25.009Z,62.58
2023-09-19T09:12:53.062Z,62.49
2023-09-19T09:15:22.221Z,62.52
2023-09-19T09:17:51.554Z,62.21
2023-09-19T09:20:19.854Z,62.48
2023-09-19T09:22:57.100Z,62.30
2023-09-19T09:25:25.127Z,62.60
2023-09-19T09:28:02.821Z,62.26
2023-09-19T09:30:38.349Z,62.38
2023-09-19T09:33:13.228Z,62.46
2023-09-19T09:35:57.991Z,62.40
2023-09-19T09:38:32.963Z,62.65
2023-09-19T09:41:07.078Z,62.64
2023-09-19T09:43:36.722Z,62.57
2023-09-19T09:46:32.021Z,62.62
2023-09-19T09:49:19.194Z,62.59
2023-09-19T09:51:53.492Z,62.42
2023-09-19T09:54:21.675Z,62.81
2023-09-19T09:57:02.274Z,62.83
2023-09-19T09:59:47.338Z,62.57
2023-09-19T10:02:30.469Z,62.65
2023-09-19T10:05:30.789Z,62.64
2023-09-19T10:08:13.109Z,62.94
2023-09-19T10:10:44.093Z,62.81
2023-09-19T10:13:16.782Z,62.78
2023-09-19T10:15:53.240Z,62.74
2023-09-19T10:18:24.944Z,62.88
2023-09-19T10:20:53.126Z,62.86
2023-09-19T10:23:24.948Z,62.95
2023-09-19T10:25:53.766Z,63.24
2023-09-19T10:28:23.002Z,62.89
2023-09-19T10:30:52.317Z,62.93
2023-09-19T10:33:23.621Z,62.92
2023-09-19T10:35:56.749Z,62.86
2023-09-19T10:38:24.848Z,62.79
2023-09-19T10:40:55.526Z,62.96
2023-09-19T10:43:33.726Z,62.97
2023-09-19T10:46:05.178Z,62.90
2023-09-19T10:48:33.096Z,63.05
2023-09-19T10:51:10.697Z,62.90
2023-09-19T10:53:43.680Z,62.98
2023-09-19T10:56:18.266Z,63.10
2023-09-19T10:58:45.990Z,62.86
2023-09-19T11:01:13.720Z,62.94
2023-09-19T11:03:44.789Z,63.12
2023-09-19T11:06:14.807Z,63.15
2023-09-19T11:08:57.374Z,63.20
2023-09-19T11:11:41.240Z,62.99
2023-09-19T11:14:27.245Z,63.13
2023-09-19T11:17:08.723Z,63.06
2023-09-19T11:19:55.753Z,63.06
2023-09-19T11:22:23.451Z,63.03
2023-09-19T11:24:52.554Z,63.17
2023-09-19T11:27:21.340Z,63.14
2023-09-19T11:29:50.166Z,63.20
2023-09-19T11:32:19.449Z,63.14
2023-09-19T11:34:49.629Z,63.13
2023-09-19T11:37:17.719Z,63.27
2023-09-19T11:40:04.141Z,63.13
2023-09-19T11:42:55.337Z,63.01
2023-09-19T11:45:58.815Z,62.95
2023-09-19T11:48:28.205Z,63.18
2023-09-19T11:50:55.689Z,63.04
2023-09-19T11:53:24.041Z,63.14
2023-09-19T11:55:51.891Z,63.00
2023-09-19T11:58:20.984Z,63.01
2023-09-19T12:00:55.097Z,63.09
2023-09-19T12:03:22.815Z,62.97
2023-09-19T12:05:50.467Z,63.03
2023-09-19T12:08:22.308Z,62.92
2023-09-19T12:10:50.245Z,62.89
2023-09-19T12:13:21.830Z,62.88
2023-09-19T12:15:49.175Z,62.92
2023-09-19T12:18:36.896Z,63.00
2023-09-19T12:21:06.080Z,63.32
2023-09-19T12:23:34.864Z,63.40
2023-09-19T12:26:03.648Z,63.06
2023-09-19T12:28:33.661Z,62.81
2023-09-19T12:31:09.622Z,62.93
2023-09-19T12:33:37.990Z,63.02
2023-09-19T12:36:22.590Z,62.96
2023-09-19T12:38:50.244Z,63.10
2023-09-19T12:41:17.401Z,62.94
2023-09-19T12:43:45.345Z,63.21
2023-09-19T12:46:12.486Z,62.93
2023-09-19T12:48:45.088Z,62.85
2023-09-19T12:51:14.380Z,62.94
2023-09-19T12:53:50.907Z,62.97
2023-09-19T12:56:19.264Z,63.02
2023-09-19T12:58:55.320Z,63.03
2023-09-19T13:01:30.202Z,62.98
2023-09-19T13:04:20.449Z,63.06
2023-09-19T13:06:50.051Z,63.06
2023-09-19T13:09:18.753Z,63.19
2023-09-19T13:12:00.945Z,63.20
2023-09-19T13:14:34.265Z,63.08
2023-09-19T13:17:20.066Z,63.04
2023-09-19T13:19:54.086Z,63.43
2023-09-19T13:22:40.583Z,63.69
2023-09-19T13:25:16.197Z,63.98
2023-09-19T13:27:45.594Z,63.57
2023-09-19T13:30:13.803Z,63.70
2023-09-19T13:32:42.031Z,64.40
2023-09-19T13:35:13.315Z,65.32
2023-09-19T13:37:44.388Z,65.25
2023-09-19T13:40:12.808Z,65.19
2023-09-19T13:42:40.953Z,65.35
2023-09-19T13:45:08.999Z,64.92
2023-09-19T13:47:39.245Z,65.10
2023-09-19T13:50:07.614Z,65.15
2023-09-19T13:52:34.838Z,66.11
2023-09-19T13:55:02.230Z,66.02
2023-09-19T13:57:30.492Z,66.16
2023-09-19T13:59:58.592Z,65.77
2023-09-19T14:02:26.521Z,65.47
2023-09-19T14:04:54.179Z,65.76
2023-09-19T14:07:21.556Z,65.66
2023-09-19T14:09:49.152Z,65.67
2023-09-19T14:12:16.794Z,65.46
2023-09-19T14:14:45.525Z,65.68
2023-09-19T14:17:12.783Z,65.67
2023-09-19T14:19:44.406Z,65.55
2023-09-19T14:22:15.083Z,65.28
2023-09-19T14:24:42.517Z,65.40
2023-09-19T14:27:10.280Z,65.70
2023-09-19T14:29:37.811Z,66.13
2023-09-19T14:32:05.161Z,66.68
2023-09-19T14:34:32.922Z,66.26
2023-09-19T14:37:00.297Z,67.06
2023-09-19T14:39:28.463Z,66.84
2023-09-19T14:41:55.549Z,66.75
2023-09-19T14:44:23.531Z,66.88
2023-09-19T14:46:50.803Z,66.98
2023-09-19T14:49:18.607Z,67.22
2023-09-19T14:51:46.033Z,67.32
2023-09-19T14:54:13.418Z,67.21
2023-09-19T14:56:42.373Z,67.08
2023-09-19T14:59:12.195Z,66.59
2023-09-19T15:01:40.123Z,66.30
2023-09-19T15:04:07.754Z,66.48
2023-09-19T15:06:35.226Z,66.59
2023-09-19T15:09:02.875Z,66.44
2023-09-19T15:11:29.983Z,66.21
2023-09-19T15:13:58.001Z,66.36
2023-09-19T15:16:25.155Z,66.64
2023-09-19T15:18:53.325Z,66.56
2023-09-19T15:21:20.694Z,66.23
2023-09-19T15:23:48.103Z,66.31
2023-09-19T15:26:21.543Z,66.16
2023-09-19T15:28:49.548Z,66.32
2023-09-19T15:31:16.842Z,66.01
2023-09-19T15:33:44.232Z,66.08
2023-09-19T15:36:12.147Z,66.32
2023-09-19T15:39:11.920Z,66.28
2023-09-19T15:41:40.597Z,66.03
2023-09-19T15:44:18.218Z,66.09
2023-09-19T15:46:46.048Z,66.25
2023-09-19T15:49:14.378Z,66.35
2023-09-19T15:51:41.801Z,66.57
2023-09-19T15:54:10.883Z,66.42
2023-09-19T15:56:38.017Z,66.60
2023-09-19T15:59:05.611Z,66.88
2023-09-19T16:01:32.846Z,67.01
2023-09-19T16:04:00.288Z,66.91
2023-09-19T16:06:28.215Z,66.88
2023-09-19T16:08:57.107Z,66.67
2023-09-19T16:11:24.599Z,66.55
2023-09-19T16:13:52.487Z,66.41
2023-09-19T16:16:23.688Z,66.26
2023-09-19T16:18:52.216Z,66.33
2023-09-19T16:21:20.632Z,66.68
2023-09-19T16:23:48.617Z,66.36
2023-09-19T16:26:15.939Z,66.49
2023-09-19T16:28:45.515Z,66.49
2023-09-19T16:31:12.739Z,66.44
2023-09-19T16:33:42.085Z,66.42
2023-09-19T16:36:10.658Z,66.36
2023-09-19T16:38:39.382Z,66.49
2023-09-19T16:41:07.353Z,66.26
2023-09-19T16:43:35.186Z,66.52
2023-09-19T16:46:06.992Z,66.44
2023-09-19T16:48:43.902Z,66.44
2023-09-19T16:51:18.876Z,66.52
2023-09-19T16:53:53.862Z,66.46
2023-09-19T16:56:21.544Z,66.26
2023-09-19T16:58:53.638Z,66.56
2023-09-19T17:01:25.347Z,66.35
2023-09-19T17:03:53.956Z,66.81
2023-09-19T17:06:23.334Z,66.63
2023-09-19T17:08:52.037Z,66.32
2023-09-19T17:11:20.426Z,66.48
2023-09-19T17:13:48.626Z,66.54
2023-09-19T17:16:24.154Z,66.60
2023-09-19T17:18:54.035Z,66.61
2023-09-19T17:21:21.463Z,66.48
2023-09-19T17:23:49.492Z,66.87
2023-09-19T17:26:22.144Z,66.59
2023-09-19T17:28:50.592Z,66.50
2023-09-19T17:31:23.339Z,66.54
2023-09-19T17:33:51.904Z,66.05
2023-09-19T17:36:21.690Z,66.04
2023-09-19T17:38:50.308Z,66.08
2023-09-19T17:41:17.931Z,65.89
2023-09-19T17:43:46.561Z,66.03
2023-09-19T17:46:17.835Z,66.26
2023-09-19T17:48:47.094Z,66.21
2023-09-19T17:51:15.363Z,65.80
2023-09-19T17:53:43.596Z,65.77
2023-09-19T17:56:11.775Z,65.95
2023-09-19T17:58:40.023Z,66.54
2023-09-19T18:01:19.157Z,66.50
2023-09-19T18:03:46.849Z,66.05
2023-09-19T18:06:14.880Z,66.07
2023-09-19T18:08:45.135Z,66.29
2023-09-19T18:11:15.769Z,66.34
2023-09-19T18:13:46.638Z,66.32
2023-09-19T18:16:14.739Z,65.87
2023-09-19T18:18:43.357Z,65.86
2023-09-19T18:21:11.082Z,65.85
2023-09-19T18:23:38.486Z,66.23
2023-09-19T18:26:08.621Z,66.41
2023-09-19T18:28:37.514Z,66.46
2023-09-19T18:31:08.929Z,65.92
2023-09-19T18:33:39.233Z,66.44
2023-09-19T18:36:10.338Z,66.37
2023-09-19T18:38:41.977Z,65.89
2023-09-19T18:41:10.266Z,66.17
2023-09-19T18:43:38.448Z,66.09
2023-09-19T18:46:09.545Z,65.81
2023-09-19T18:48:37.668Z,66.16
2023-09-19T18:51:08.509Z,66.20
2023-09-19T18:53:36.308Z,66.12
2023-09-19T18:56:04.518Z,66.30
2023-09-19T18:58:31.992Z,65.82
2023-09-19T19:01:05.814Z,66.04
2023-09-19T19:03:34.854Z,66.13
2023-09-19T19:06:06.080Z,66.23
2023-09-19T19:08:33.548Z,65.88
2023-09-19T19:11:00.989Z,66.24
2023-09-19T19:13:28.530Z,66.02
2023-09-19T19:15:57.989Z,65.96
2023-09-19T19:18:29.740Z,65.96
2023-09-19T19:21:00.178Z,65.78
2023-09-19T19:23:29.031Z,65.91
2023-09-19T19:25:58.018Z,65.72
2023-09-19T19:28:26.419Z,65.70
2023-09-19T19:30:53.634Z,65.65
2023-09-19T19:33:22.917Z,65.45
2023-09-19T19:35:50.091Z,65.81
2023-09-19T19:38:18.540Z,65.63
2023-09-19T19:40:45.757Z,65.27
2023-09-19T19:43:13.136Z,64.91
2023-09-19T19:45:40.164Z,65.00
2023-09-19T19:48:08.627Z,64.83
2023-09-19T19:50:38.974Z,64.95
2023-09-19T19:53:06.348Z,64.83
2023-09-19T19:55:33.660Z,65.00
2023-09-19T19:58:01.041Z,64.95
2023-09-19T20:00:31.857Z,65.14
2023-09-19T20:03:00.260Z,65.21
2023-09-19T20:05:28.073Z,65.04
2023-09-19T20:07:55.569Z,65.11
2023-09-19T20:10:23.163Z,64.82
2023-09-19T20:12:50.828Z,64.90
2023-09-19T20:15:18.004Z,64.83
2023-09-19T20:17:45.519Z,65.16
2023-09-19T20:20:19.267Z,64.95
2023-09-19T20:22:47.007Z,64.95
2023-09-19T20:25:14.454Z,65.04
2023-09-19T20:27:42.641Z,64.85
2023-09-19T20:30:13.362Z,64.64
2023-09-19T20:32:41.192Z,64.89
2023-09-19T20:35:08.815Z,64.54
2023-09-19T20:37:38.325Z,64.65
2023-09-19T20:40:07.193Z,64.77
2023-09-19T20:42:34.509Z,64.85
2023-09-19T20:45:01.996Z,64.90
2023-09-19T20:47:29.579Z,64.81
2023-09-19T20:49:57.603Z,64.46
2023-09-19T20:52:25.377Z,64.63
2023-09-19T20:54:52.598Z,64.32
2023-09-19T20:57:20.917Z,64.42
2023-09-19T20:59:48.170Z,64.30
2023-09-19T21:02:16.406Z,64.29
2023-09-19T21:04:43.632Z,64.46
2023-09-19T21:07:11.806Z,64.25
2023-09-19T21:09:39.504Z,64.12
2023-09-19T21:12:06.897Z,64.12
2023-09-19T21:14:36.741Z,64.25
2023-09-19T21:17:04.926Z,64.37
2023-09-19T21:19:33.051Z,64.11
2023-09-19T21:22:00.477Z,63.96
2023-09-19T21:24:31.117Z,64.03
2023-09-19T21:26:58.700Z,63.90
2023-09-19T21:29:25.869Z,63.84
2023-09-19T21:31:53.711Z,64.01
2023-09-19T21:34:21.415Z,63.82
2023-09-19T21:36:48.777Z,63.73
2023-09-19T21:39:16.075Z,63.62
2023-09-19T21:41:43.416Z,63.79
2023-09-19T21:44:11.117Z,63.74
2023-09-19T21:46:38.633Z,63.48
2023-09-19T21:49:06.428Z,63.58
2023-09-19T21:51:34.549Z,63.52
2023-09-19T21:54:05.212Z,63.40
2023-09-19T21:56:32.692Z,63.23
2023-09-19T21:59:00.132Z,63.21
2023-09-19T22:01:29.242Z,63.25
2023-09-19T22:03:56.474Z,63.37
2023-09-19T22:06:24.479Z,63.14
2023-09-19T22:08:51.881Z,63.26
2023-09-19T22:11:21.716Z,63.05
2023-09-19T22:13:49.564Z,63.16
2023-09-19T22:16:17.938Z,63.08
2023-09-19T22:18:51.383Z,63.05
2023-09-19T22:21:23.823Z,62.89
2023-09-19T22:23:53.883Z,63.03
2023-09-19T22:26:23.773Z,62.83
2023-09-19T22:28:56.453Z,63.08
2023-09-19T22:31:27.493Z,62.96
2023-09-19T22:33:56.331Z,62.95
2023-09-19T22:36:25.308Z,62.77
2023-09-19T22:38:52.812Z,62.80
2023-09-19T22:41:22.521Z,62.84
2023-09-19T22:43:52.356Z,62.70
2023-09-19T22:46:20.258Z,62.47
2023-09-19T22:48:47.602Z,62.96
2023-09-19T22:51:22.323Z,62.87
2023-09-19T22:53:58.476Z,62.69
2023-09-19T22:56:28.216Z,62.83
2023-09-19T22:58:56.095Z,62.69
2023-09-19T23:01:36.267Z,62.67
2023-09-19T23:04:13.180Z,62.64
2023-09-19T23:06:40.573Z,62.74
2023-09-19T23:09:16.864Z,62.68
2023-09-19T23:11:47.984Z,62.56
2023-09-19T23:14:16.181Z,62.55
2023-09-19T23:16:57.680Z,62.76
2023-09-19T23:19:31.403Z,62.76
2023-09-19T23:22:10.348Z,62.58
2023-09-19T23:24:39.102Z,62.46
2023-09-19T23:27:13.044Z,62.73
2023-09-19T23:29:40.773Z,62.44
2023-09-19T23:32:09.806Z,62.46
2023-09-19T23:34:37.040Z,62.52
2023-09-19T23:37:04.596Z,62.54
2023-09-19T23:39:31.661Z,62.46
2023-09-19T23:41:59.795Z,62.25
2023-09-19T23:44:28.954Z,62.42
2023-09-19T23:46:57.286Z,62.23
2023-09-19T23:49:24.818Z,62.32
2023-09-19T23:51:57.496Z,62.22
2023-09-19T23:54:27.403Z,61.95
2023-09-19T23:56:54.893Z,62.03
2023-09-19T23:59:25.083Z,61.92
